Time;durP1;ratioP1;P1;durP2;ratioP2;P2;SDS_P1;SDS_P2;PMS_P1;PMS_P2;Temp;Humidity;BMP_temperature;BMP_pressure;BME280_temperature;BME280_humidity;BME280_pressure;Samples;Min_cycle;Max_cycle;Signal;HPM_P1;HPM_P2
2023/01/11 00:00:27;;;;;;;1.30;0.60;;;;;;;4.83;85.65;97408.63;5045841;28;20041;-65
2023/01/11 00:03:01;;;;;;;3.35;0.80;;;;;;;4.93;84.88;97410.88;5044515;28;20053;-65
2023/01/11 00:05:27;;;;;;;4.90;1.25;;;;;;;4.95;85.13;97408.81;5042693;28;20052;-64
2023/01/11 00:07:55;;;;;;;1.55;0.73;;;;;;;4.91;85.29;97416.44;5045764;28;20049;-65
2023/01/11 00:10:22;;;;;;;2.65;0.73;;;;;;;4.92;85.74;97398.50;5045596;28;20112;-65
2023/01/11 00:12:48;;;;;;;1.40;0.63;;;;;;;4.95;86.33;97403.44;5043802;28;20044;-65
2023/01/11 00:15:15;;;;;;;2.33;0.82;;;;;;;4.94;86.41;97397.25;5042048;28;20051;-63
2023/01/11 00:17:41;;;;;;;2.55;0.85;;;;;;;4.90;87.29;97384.47;5045210;28;20059;-65
2023/01/11 00:20:09;;;;;;;2.47;0.75;;;;;;;4.90;87.35;97374.56;5045053;28;20049;-64
2023/01/11 00:22:36;;;;;;;3.72;0.65;;;;;;;4.94;87.35;97381.13;5043768;28;20056;-64
2023/01/11 00:25:03;;;;;;;2.10;0.60;;;;;;;4.90;87.51;97377.25;5045186;28;20669;-62
2023/01/11 00:27:30;;;;;;;4.00;0.85;;;;;;;4.95;87.28;97373.91;5045727;28;20127;-65
2023/01/11 00:29:57;;;;;;;2.30;0.73;;;;;;;4.97;87.22;97369.16;5044362;28;20056;-64
2023/01/11 00:32:23;;;;;;;2.60;0.70;;;;;;;4.91;87.77;97362.78;5044443;28;20045;-64
2023/01/11 00:34:50;;;;;;;1.58;0.60;;;;;;;4.89;87.87;97361.34;5045716;28;20057;-65
2023/01/11 00:37:16;;;;;;;2.65;0.63;;;;;;;4.89;87.78;97367.56;5044640;28;20115;-62
2023/01/11 00:39:43;;;;;;;3.45;0.70;;;;;;;4.95;87.29;97357.81;5045551;28;20037;-64
2023/01/11 00:48:04;;;;;;;2.63;0.85;;;;;;;4.84;87.70;97345.91;5003455;28;20041;-68
2023/01/11 00:50:33;;;;;;;3.85;0.88;;;;;;;4.81;87.50;97340.97;5012286;28;20039;-65
2023/01/11 00:53:00;;;;;;;2.25;0.70;;;;;;;4.88;87.47;97338.25;5037156;28;20053;-64
2023/01/11 00:55:27;;;;;;;3.10;0.82;;;;;;;4.80;87.86;97331.28;5048099;28;20045;-65
2023/01/11 00:57:53;;;;;;;2.33;0.90;;;;;;;4.76;88.23;97338.94;5047659;28;20076;-64
2023/01/11 01:00:20;;;;;;;1.60;0.57;;;;;;;4.75;88.00;97336.47;5047593;28;20393;-64
2023/01/11 01:02:48;;;;;;;2.75;0.95;;;;;;;4.72;88.65;97331.53;5046784;28;20620;-65
2023/01/11 01:05:15;;;;;;;3.03;0.70;;;;;;;4.80;88.29;97337.47;5046797;28;20068;-63
2023/01/11 01:07:42;;;;;;;1.52;0.60;;;;;;;4.84;88.41;97337.03;5048147;28;20049;-64
2023/01/11 01:10:11;;;;;;;3.28;0.70;;;;;;;4.85;88.69;97322.56;5047733;28;20041;-64
2023/01/11 01:15:23;;;;;;;1.75;0.50;;;;;;;4.79;90.00;97326.97;5048183;28;20539;-64
2023/01/11 01:17:55;;;;;;;3.13;0.90;;;;;;;4.80;90.41;97334.78;5048091;28;20076;-65
2023/01/11 01:20:22;;;;;;;1.48;0.70;;;;;;;4.79;91.15;97326.97;5044926;28;20120;-66
2023/01/11 01:22:49;;;;;;;2.00;0.80;;;;;;;4.74;91.89;97332.13;5046442;28;20071;-64
2023/01/11 01:25:16;;;;;;;2.60;0.73;;;;;;;4.86;91.48;97325.03;5047183;28;20134;-63
2023/01/11 01:27:43;;;;;;;3.50;1.02;;;;;;;4.78;92.45;97323.47;5047516;28;20036;-63
2023/01/11 01:30:10;;;;;;;2.13;0.75;;;;;;;4.79;92.82;97317.03;5046969;28;20152;-64
2023/01/11 01:32:36;;;;;;;1.20;0.50;;;;;;;4.76;93.27;97330.88;5046363;28;20045;-62
2023/01/11 01:35:03;;;;;;;0.80;0.50;;;;;;;4.80;93.54;97323.25;5047050;28;20040;-64
2023/01/11 01:37:29;;;;;;;1.95;0.60;;;;;;;4.80;93.90;97328.59;5047188;28;20106;-63
2023/01/11 01:39:56;;;;;;;1.95;0.60;;;;;;;4.89;93.65;97324.63;5047613;28;20037;-65
2023/01/11 01:42:24;;;;;;;1.20;0.60;;;;;;;4.82;94.12;97329.19;5045895;28;20037;-63
2023/01/11 01:44:53;;;;;;;0.90;0.43;;;;;;;4.79;94.49;97319.72;5047334;28;20487;-65
2023/01/11 01:47:33;;;;;;;2.08;0.98;;;;;;;4.77;94.79;97312.94;5048443;28;20563;-63
2023/01/11 01:50:09;;;;;;;2.28;0.73;;;;;;;4.75;95.06;97315.81;5046321;28;20041;-64
2023/01/11 01:52:35;;;;;;;2.95;0.73;;;;;;;4.77;95.03;97310.25;5034205;28;20120;-62
2023/01/11 01:55:09;;;;;;;1.67;0.63;;;;;;;4.75;95.12;97315.03;5046305;28;20491;-62
2023/01/11 01:57:39;;;;;;;1.38;0.73;;;;;;;4.73;94.86;97312.56;5047643;28;20048;-62
2023/01/11 02:00:08;;;;;;;3.03;0.80;;;;;;;4.74;94.78;97322.25;5047398;28;20486;-62
2023/01/11 02:02:37;;;;;;;1.88;0.63;;;;;;;4.70;94.77;97310.28;5045710;28;20037;-65
2023/01/11 02:05:05;;;;;;;2.17;0.80;;;;;;;4.77;94.46;97311.09;5046093;28;20121;-64
2023/01/11 02:07:34;;;;;;;3.78;0.90;;;;;;;4.77;94.46;97303.03;5047708;28;20083;-63
2023/01/11 02:10:06;;;;;;;3.75;0.80;;;;;;;4.76;94.42;97304.06;5046063;28;20777;-63
2023/01/11 02:12:40;;;;;;;3.67;0.70;;;;;;;4.81;94.21;97298.06;5047673;28;20040;-65
2023/01/11 02:15:09;;;;;;;1.75;0.80;;;;;;;4.74;94.62;97297.25;5046661;28;20564;-64
2023/01/11 02:17:36;;;;;;;3.65;0.90;;;;;;;4.77;94.85;97288.78;5046974;28;20697;-63
2023/01/11 02:20:40;;;;;;;1.70;0.63;;;;;;;4.74;94.85;97298.09;5049573;28;20036;-62
2023/01/11 02:23:30;;;;;;;3.30;0.60;;;;;;;4.77;95.06;97300.34;5047065;28;20440;-64
2023/01/11 02:26:34;;;;;;;1.00;0.68;;;;;;;4.80;95.07;97288.38;5045575;28;20071;-64
2023/01/11 02:29:25;;;;;;;2.85;0.60;;;;;;;4.82;95.17;97279.06;5046724;28;20060;-65
2023/01/11 02:32:07;;;;;;;3.15;0.80;;;;;;;4.80;95.43;97278.44;5044022;28;20053;-64
2023/01/11 02:34:49;;;;;;;2.55;0.70;;;;;;;4.82;95.64;97276.38;5042087;28;20036;-64
2023/01/11 02:37:42;;;;;;;1.15;0.60;;;;;;;4.82;96.02;97271.00;5058408;28;20048;-65
2023/01/11 02:40:19;;;;;;;1.92;0.77;;;;;;;4.91;96.27;97278.81;5045461;28;20128;-63
2023/01/11 02:46:07;;;;;;;2.75;0.80;;;;;;;5.07;95.49;97280.13;5043108;28;20118;-63
2023/01/11 02:48:53;;;;;;;1.42;0.57;;;;;;;5.12;95.31;97274.91;5045220;28;20598;-65
2023/01/11 02:51:39;;;;;;;1.08;0.60;;;;;;;5.14;95.38;97274.69;5045541;28;20076;-64
2023/01/11 02:54:08;;;;;;;4.20;0.63;;;;;;;5.13;95.44;97279.25;5046474;28;20045;-64
2023/01/11 02:56:39;;;;;;;2.88;0.70;;;;;;;5.08;95.51;97276.38;5044929;28;20053;-63
2023/01/11 02:59:16;;;;;;;1.95;0.93;;;;;;;5.02;96.21;97279.97;5046210;28;20708;-63
2023/01/11 03:01:49;;;;;;;2.15;0.52;;;;;;;5.12;96.18;97271.41;5045201;28;20048;-63
2023/01/11 03:04:28;;;;;;;1.15;0.50;;;;;;;5.11;96.17;97261.69;5044801;28;20425;-64
2023/01/11 03:07:14;;;;;;;1.45;0.50;;;;;;;5.06;96.58;97263.19;5045593;28;20098;-62
2023/01/11 03:09:53;;;;;;;0.77;0.55;;;;;;;5.01;97.16;97268.38;5042061;28;20116;-64
2023/01/11 03:12:53;;;;;;;2.22;0.50;;;;;;;4.98;97.44;97263.47;5052226;28;20049;-63
2023/01/11 03:15:46;;;;;;;1.65;0.60;;;;;;;4.94;97.71;97259.59;5047259;28;20053;-64
2023/01/11 03:18:40;;;;;;;2.58;0.70;;;;;;;4.98;97.82;97260.78;5015273;28;20126;-63
2023/01/11 03:21:22;;;;;;;1.25;0.65;;;;;;;4.99;98.18;97267.78;5041089;28;20626;-65
2023/01/11 03:24:12;;;;;;;1.65;0.52;;;;;;;5.13;97.69;97260.47;5045337;28;20041;-64
2023/01/11 03:26:49;;;;;;;0.90;0.50;;;;;;;5.21;97.23;97252.13;5044842;28;20131;-63
2023/01/11 03:29:28;;;;;;;3.00;0.60;;;;;;;5.31;97.03;97250.81;5044866;28;20045;-64
2023/01/11 03:32:03;;;;;;;3.28;0.65;;;;;;;5.27;97.23;97249.63;5044099;28;20037;-64
2023/01/11 03:34:37;;;;;;;2.72;0.68;;;;;;;5.28;97.38;97253.94;5046033;28;20544;-63
2023/01/11 03:37:11;;;;;;;1.27;0.52;;;;;;;5.28;97.57;97241.34;5045488;28;20068;-64
2023/01/11 03:40:03;;;;;;;1.88;0.50;;;;;;;5.19;98.29;97235.41;5045318;28;20056;-65
2023/01/11 03:42:32;;;;;;;1.38;0.50;;;;;;;5.26;98.13;97246.09;5043576;28;20069;-65
2023/01/11 03:45:01;;;;;;;1.10;0.52;;;;;;;5.23;98.22;97237.66;5046070;28;20467;-63
2023/01/11 03:47:29;;;;;;;1.30;0.68;;;;;;;5.34;98.29;97237.75;5044361;28;20127;-63
2023/01/11 03:50:05;;;;;;;3.10;0.70;;;;;;;5.26;99.05;97227.31;5045125;28;20037;-65
2023/01/11 03:52:36;;;;;;;0.93;0.50;;;;;;;5.33;99.07;97230.75;5043680;28;20041;-63
2023/01/11 03:55:06;;;;;;;1.33;0.40;;;;;;;5.40;99.43;97219.13;5043051;28;20057;-62
2023/01/11 03:57:41;;;;;;;1.58;0.70;;;;;;;5.46;99.48;97212.88;5039263;28;20048;-63
2023/01/11 04:00:08;;;;;;;1.45;0.50;;;;;;;5.51;99.66;97202.28;5045139;28;20041;-65
2023/01/11 04:02:39;;;;;;;2.63;0.68;;;;;;;5.53;99.97;97208.22;5043326;28;20048;-64
2023/01/11 04:05:08;;;;;;;1.90;0.50;;;;;;;5.62;99.65;97199.88;5045415;28;20064;-66
2023/01/11 04:07:34;;;;;;;1.80;0.40;;;;;;;5.64;100.00;97197.78;5045973;28;20047;-64
2023/01/11 04:10:02;;;;;;;1.58;0.57;;;;;;;5.69;99.94;97204.16;5044639;28;20120;-65
2023/01/11 04:12:28;;;;;;;1.45;0.60;;;;;;;5.77;99.71;97192.25;5053192;28;20048;-63
2023/01/11 04:14:55;;;;;;;1.98;0.40;;;;;;;5.79;100.00;97200.91;5056982;28;20163;-63
2023/01/11 04:17:21;;;;;;;0.63;0.40;;;;;;;5.85;99.76;97204.56;5045670;28;20041;-65
2023/01/11 04:19:48;;;;;;;0.70;0.38;;;;;;;5.82;100.00;97197.78;5044630;28;20559;-62
2023/01/11 04:22:14;;;;;;;2.53;0.70;;;;;;;5.78;100.00;97195.78;5044047;28;20049;-63
2023/01/11 04:24:41;;;;;;;2.53;0.77;;;;;;;5.77;100.00;97203.00;5044317;28;20041;-64
2023/01/11 04:27:07;;;;;;;1.20;0.50;;;;;;;5.90;99.42;97199.31;5046220;28;20052;-64
2023/01/11 04:29:34;;;;;;;2.80;0.70;;;;;;;5.79;100.00;97208.16;5044179;28;20071;-63
2023/01/11 04:32:00;;;;;;;0.93;0.35;;;;;;;5.64;100.00;97203.97;5043910;28;20574;-62
2023/01/11 04:34:27;;;;;;;1.77;0.50;;;;;;;5.64;100.00;97189.75;5045231;28;20045;-63
2023/01/11 04:36:53;;;;;;;1.67;0.75;;;;;;;5.58;100.00;97192.28;5046677;28;20413;-63
2023/01/11 04:39:20;;;;;;;1.10;0.50;;;;;;;5.54;100.00;97180.34;5048838;28;20069;-63
2023/01/11 04:44:31;;;;;;;0.85;0.40;;;;;;;5.57;100.00;97185.25;5049212;28;20071;-64
2023/01/11 04:46:58;;;;;;;0.93;0.35;;;;;;;5.47;100.00;97179.59;5048246;28;20156;-65
2023/01/11 04:49:25;;;;;;;2.38;0.50;;;;;;;5.39;100.00;97186.09;5045852;28;20123;-63
2023/01/11 04:51:52;;;;;;;1.85;0.55;;;;;;;5.32;100.00;97183.47;5046523;28;20040;-65
2023/01/11 04:54:18;;;;;;;0.70;0.55;;;;;;;5.31;100.00;97191.75;5048068;28;20057;-64
2023/01/11 04:56:45;;;;;;;2.25;0.75;;;;;;;5.32;100.00;97185.31;5048614;28;20538;-64
2023/01/11 04:59:12;;;;;;;2.05;0.68;;;;;;;5.28;100.00;97176.91;5048395;28;20037;-65
2023/01/11 05:01:39;;;;;;;0.45;0.30;;;;;;;5.25;100.00;97180.03;5046504;28;20041;-63
2023/01/11 05:04:05;;;;;;;2.25;0.50;;;;;;;5.36;100.00;97180.31;5047688;28;20049;-64
2023/01/11 05:06:32;;;;;;;1.80;0.50;;;;;;;5.20;100.00;97163.78;5048534;28;20045;-64
2023/01/11 05:08:59;;;;;;;2.08;0.50;;;;;;;5.29;100.00;97173.16;5047717;28;20500;-63
2023/01/11 05:11:25;;;;;;;0.95;0.40;;;;;;;5.23;100.00;97171.38;5047260;28;20484;-64
2023/01/11 05:13:52;;;;;;;1.65;0.90;;;;;;;5.38;100.00;97165.63;5055481;28;20045;-65
2023/01/11 05:16:22;;;;;;;1.83;0.60;;;;;;;5.45;100.00;97171.75;5047113;28;20505;-65
2023/01/11 05:18:54;;;;;;;3.50;0.67;;;;;;;5.39;100.00;97169.16;5046864;28;20099;-64
2023/01/11 05:21:24;;;;;;;1.95;0.60;;;;;;;5.16;100.00;97171.44;5045945;28;20045;-64
2023/01/11 05:23:52;;;;;;;3.22;1.05;;;;;;;5.15;100.00;97172.47;5047416;28;20047;-64
2023/01/11 05:26:25;;;;;;;1.98;0.70;;;;;;;5.13;100.00;97173.75;5047985;28;20124;-64
2023/01/11 05:28:54;;;;;;;1.95;0.80;;;;;;;5.18;100.00;97174.72;5047819;28;20041;-64
2023/01/11 05:31:21;;;;;;;2.97;1.05;;;;;;;5.08;100.00;97171.72;5045941;28;20041;-64
2023/01/11 05:33:48;;;;;;;2.03;0.60;;;;;;;5.04;100.00;97168.66;5048353;28;20045;-63
2023/01/11 05:36:20;;;;;;;1.27;0.60;;;;;;;5.03;100.00;97164.34;5046850;28;20051;-63
2023/01/11 05:38:49;;;;;;;1.73;0.75;;;;;;;4.98;100.00;97169.56;5047260;28;20504;-65
2023/01/11 05:41:18;;;;;;;1.98;0.70;;;;;;;4.97;100.00;97164.41;5045985;28;20783;-63
2023/01/11 05:46:33;;;;;;;3.38;1.30;;;;;;;4.92;100.00;97163.22;5046767;28;20048;-64
2023/01/11 05:48:59;;;;;;;1.17;0.77;;;;;;;4.91;100.00;97163.44;5047519;28;20076;-66
2023/01/11 05:51:31;;;;;;;0.90;0.60;;;;;;;4.89;100.00;97155.59;5045252;28;20385;-64
2023/01/11 05:54:03;;;;;;;0.95;0.70;;;;;;;4.90;100.00;97151.06;5047229;28;20124;-65
2023/01/11 05:56:30;;;;;;;1.67;0.75;;;;;;;4.90;100.00;97135.75;5046990;28;20415;-64
2023/01/11 05:58:57;;;;;;;0.90;0.50;;;;;;;4.95;100.00;97127.88;5047834;28;20041;-63
2023/01/11 06:01:24;;;;;;;1.90;0.68;;;;;;;5.07;100.00;97127.97;5045264;28;20048;-65
2023/01/11 06:03:51;;;;;;;1.73;0.70;;;;;;;5.21;100.00;97127.81;5046730;28;20041;-62
2023/01/11 06:06:19;;;;;;;1.10;0.40;;;;;;;5.15;100.00;97124.16;5046861;28;20095;-64
2023/01/11 06:08:46;;;;;;;1.52;0.52;;;;;;;5.11;100.00;97116.78;5046603;28;20132;-65
2023/01/11 06:11:13;;;;;;;3.05;0.75;;;;;;;5.23;100.00;97117.66;5045847;28;20094;-64
2023/01/11 06:13:40;;;;;;;1.10;0.60;;;;;;;5.31;100.00;97109.31;5047267;28;20041;-66
2023/01/11 06:16:12;;;;;;;2.60;0.40;;;;;;;5.39;100.00;97110.91;5046135;28;20056;-60
2023/01/11 06:18:41;;;;;;;2.35;0.63;;;;;;;5.45;100.00;97104.63;5047167;28;20045;-61
2023/01/11 06:21:09;;;;;;;1.27;0.50;;;;;;;5.52;100.00;97112.59;5045566;28;20051;-61
2023/01/11 06:23:38;;;;;;;0.90;0.50;;;;;;;5.65;100.00;97108.94;5046274;28;20044;-61
2023/01/11 06:26:11;;;;;;;1.17;0.50;;;;;;;5.69;100.00;97111.97;5047665;28;20056;-60
2023/01/11 06:28:38;;;;;;;1.38;0.70;;;;;;;5.70;100.00;97106.38;5047234;28;20037;-61
2023/01/11 06:31:06;;;;;;;1.52;0.77;;;;;;;5.69;100.00;97107.44;5043914;28;20128;-61
2023/01/11 06:33:33;;;;;;;0.90;0.43;;;;;;;5.69;100.00;97106.59;5046976;28;20041;-60
2023/01/11 06:36:05;;;;;;;1.90;0.88;;;;;;;5.67;100.00;97106.81;5046353;28;20677;-61
2023/01/11 06:38:32;;;;;;;1.92;0.70;;;;;;;5.79;100.00;97096.13;5046350;28;20045;-60
2023/01/11 06:41:00;;;;;;;1.33;0.65;;;;;;;5.82;100.00;97100.25;5044968;28;20052;-61
2023/01/11 06:43:28;;;;;;;2.75;0.55;;;;;;;5.86;100.00;97102.22;5045529;28;20124;-60
2023/01/11 06:45:55;;;;;;;2.05;0.85;;;;;;;5.84;100.00;97106.19;5045920;28;20569;-60
2023/01/11 06:48:22;;;;;;;2.55;0.95;;;;;;;5.88;100.00;97102.00;5045290;28;20041;-61
2023/01/11 06:50:51;;;;;;;3.70;0.70;;;;;;;5.81;100.00;97106.63;5044016;28;20045;-61
2023/01/11 06:53:17;;;;;;;1.85;0.75;;;;;;;5.86;100.00;97110.28;5045546;28;20111;-62
2023/01/11 06:55:48;;;;;;;1.88;1.00;;;;;;;5.82;100.00;97111.78;5039480;28;20041;-61
2023/01/11 06:58:15;;;;;;;1.75;0.70;;;;;;;5.81;100.00;97110.16;5056081;28;20131;-61
2023/01/11 07:00:41;;;;;;;3.00;0.80;;;;;;;5.78;100.00;97102.53;5052410;28;20040;-61
2023/01/11 07:03:10;;;;;;;2.45;0.70;;;;;;;5.82;100.00;97101.03;5043681;28;20052;-61
2023/01/11 07:05:36;;;;;;;3.03;0.88;;;;;;;5.88;100.00;97087.75;5045357;28;20471;-61
2023/01/11 07:08:03;;;;;;;1.65;0.70;;;;;;;5.92;100.00;97094.28;5043193;28;20048;-61
2023/01/11 07:10:30;;;;;;;4.03;1.10;;;;;;;5.95;100.00;97088.47;5045277;28;20069;-61
2023/01/11 07:12:57;;;;;;;2.13;0.73;;;;;;;5.95;100.00;97083.94;5044277;28;20071;-60
2023/01/11 07:15:23;;;;;;;3.58;1.00;;;;;;;5.97;100.00;97097.94;5041183;28;20053;-61
2023/01/11 07:17:57;;;;;;;3.25;0.80;;;;;;;6.00;100.00;97085.91;5043487;28;20136;-61
2023/01/11 07:20:24;;;;;;;2.40;0.75;;;;;;;5.95;100.00;97080.41;5042094;28;20061;-61
2023/01/11 07:22:51;;;;;;;1.88;0.98;;;;;;;5.95;100.00;97092.00;5044595;28;20134;-61
2023/01/11 07:25:17;;;;;;;1.88;0.90;;;;;;;5.91;100.00;97082.75;5043202;28;20048;-61
2023/01/11 07:27:44;;;;;;;1.25;0.60;;;;;;;5.90;100.00;97091.84;5043118;28;20056;-61
2023/01/11 07:30:11;;;;;;;1.75;0.57;;;;;;;6.01;100.00;97098.28;5041988;28;20041;-59
2023/01/11 07:32:38;;;;;;;2.60;0.82;;;;;;;6.09;100.00;97098.00;5041397;28;20041;-60
2023/01/11 07:35:05;;;;;;;2.35;0.70;;;;;;;6.09;100.00;97106.06;5041621;28;20143;-58
2023/01/11 07:37:33;;;;;;;3.15;1.10;;;;;;;6.13;100.00;97105.63;5042480;28;20059;-60
2023/01/11 07:39:59;;;;;;;3.03;1.00;;;;;;;6.09;100.00;97100.69;5045724;28;20060;-61
2023/01/11 07:45:11;;;;;;;1.00;0.50;;;;;;;6.15;100.00;97103.53;5041271;28;20045;-61
2023/01/11 07:47:38;;;;;;;1.92;0.80;;;;;;;6.28;100.00;97106.00;5042900;28;20087;-63
2023/01/11 07:50:05;;;;;;;1.13;0.73;;;;;;;6.31;100.00;97097.50;5043247;28;20582;-60
2023/01/11 07:52:32;;;;;;;2.83;0.70;;;;;;;6.31;100.00;97092.13;5041014;28;20048;-61
2023/01/11 07:55:01;;;;;;;2.38;0.60;;;;;;;6.34;100.00;97102.38;5042375;28;20492;-61
2023/01/11 07:57:31;;;;;;;2.50;0.88;;;;;;;6.39;100.00;97093.63;5043470;28;20059;-61
2023/01/11 07:59:58;;;;;;;1.25;0.70;;;;;;;6.51;100.00;97085.56;5042389;28;20052;-60
2023/01/11 08:02:24;;;;;;;2.80;0.90;;;;;;;6.58;100.00;97091.66;5049073;28;20052;-61
2023/01/11 08:04:51;;;;;;;1.70;0.85;;;;;;;6.60;100.00;97094.94;5041422;28;20048;-60
2023/01/11 08:07:17;;;;;;;2.25;0.85;;;;;;;6.61;100.00;97095.75;5042364;28;20507;-60
2023/01/11 08:09:44;;;;;;;1.20;0.60;;;;;;;6.67;100.00;97094.00;5045297;28;20052;-60
2023/01/11 08:14:55;;;;;;;1.92;0.70;;;;;;;6.64;100.00;97085.34;5039783;28;20500;-60
2023/01/11 08:17:22;;;;;;;2.85;0.90;;;;;;;6.65;100.00;97088.88;5047350;28;20055;-61
2023/01/11 08:19:48;;;;;;;2.78;1.10;;;;;;;6.67;100.00;97091.31;5035898;28;20045;-61
2023/01/11 08:22:16;;;;;;;1.20;0.70;;;;;;;6.69;100.00;97081.97;5038841;28;20049;-61
2023/01/11 08:24:43;;;;;;;1.13;0.75;;;;;;;6.70;100.00;97078.22;5046448;28;20053;-61
2023/01/11 08:27:10;;;;;;;1.48;0.75;;;;;;;6.74;100.00;97084.75;5046526;28;20056;-61
2023/01/11 08:29:37;;;;;;;1.10;0.75;;;;;;;6.80;100.00;97074.09;5046466;28;20064;-60
2023/01/11 08:32:03;;;;;;;1.90;0.70;;;;;;;6.93;100.00;97070.38;5043976;28;20052;-60
2023/01/11 08:34:30;;;;;;;3.92;1.30;;;;;;;6.97;100.00;97085.78;5046594;28;20049;-60
2023/01/11 08:37:00;;;;;;;2.97;0.95;;;;;;;6.97;100.00;97083.09;5044539;28;20559;-60
2023/01/11 08:39:30;;;;;;;2.38;0.90;;;;;;;7.02;100.00;97077.03;5045538;28;20041;-58
2023/01/11 08:41:58;;;;;;;1.92;0.88;;;;;;;7.06;100.00;97083.56;5044300;28;20041;-60
2023/01/11 08:44:25;;;;;;;3.38;0.90;;;;;;;7.11;100.00;97080.97;5043940;28;20084;-60
2023/01/11 08:47:00;;;;;;;2.28;0.70;;;;;;;7.13;100.00;97081.59;5042530;28;20835;-61
2023/01/11 08:49:29;;;;;;;0.95;0.70;;;;;;;7.15;100.00;97079.47;5046455;28;20048;-60
2023/01/11 08:51:55;;;;;;;1.58;0.90;;;;;;;7.17;100.00;97079.22;5043461;28;20086;-59
2023/01/11 08:54:22;;;;;;;2.83;0.93;;;;;;;7.18;100.00;97077.34;5044953;28;20103;-61
2023/01/11 08:56:48;;;;;;;2.50;0.70;;;;;;;7.25;100.00;97083.41;5044760;28;20044;-58
2023/01/11 08:59:15;;;;;;;2.40;0.70;;;;;;;7.29;100.00;97082.72;5045971;28;20592;-60
2023/01/11 09:01:41;;;;;;;18.20;8.75;;;;;;;7.36;100.00;97087.97;5043823;28;20033;-61
2023/01/11 09:04:08;;;;;;;24.45;10.98;;;;;;;7.38;100.00;97085.84;5045775;28;20099;-61
2023/01/11 09:06:49;;;;;;;2.63;1.08;;;;;;;7.41;100.00;97088.06;5044816;28;20048;-60
2023/01/11 09:09:15;;;;;;;2.03;1.10;;;;;;;7.39;100.00;97084.81;5045514;28;20088;-61
2023/01/11 09:11:55;;;;;;;2.75;0.70;;;;;;;7.45;100.00;97082.22;5043144;28;20496;-61
2023/01/11 09:14:24;;;;;;;3.72;1.10;;;;;;;7.47;100.00;97080.06;5040390;28;20048;-61
2023/01/11 09:16:52;;;;;;;3.28;1.33;;;;;;;7.46;100.00;97086.53;5050723;28;20041;-60
2023/01/11 09:19:19;;;;;;;4.60;1.35;;;;;;;7.45;100.00;97088.41;5045473;28;20065;-60
2023/01/11 09:21:46;;;;;;;1.52;0.60;;;;;;;7.54;100.00;97092.38;5042933;28;20083;-61
2023/01/11 09:24:13;;;;;;;4.22;1.45;;;;;;;7.57;99.96;97085.69;5044431;28;20531;-61
2023/01/11 09:26:42;;;;;;;5.43;2.58;;;;;;;7.60;100.00;97089.78;5044370;28;20514;-61
2023/01/11 09:29:10;;;;;;;1.60;0.80;;;;;;;7.59;100.00;97086.25;5043676;28;20135;-61
2023/01/11 09:31:37;;;;;;;2.33;0.95;;;;;;;7.63;99.80;97094.69;5043103;28;20501;-61
2023/01/11 09:34:05;;;;;;;4.53;1.20;;;;;;;7.64;99.73;97086.38;5043149;28;20049;-60
2023/01/11 09:36:34;;;;;;;11.25;7.63;;;;;;;7.63;99.76;97095.50;5055711;28;20460;-60
2023/01/11 09:39:04;;;;;;;2.90;1.00;;;;;;;7.66;99.66;97099.56;5047209;28;20598;-61
2023/01/11 09:41:49;;;;;;;6.10;1.23;;;;;;;7.73;99.21;97096.75;5044161;28;20076;-61
2023/01/11 09:44:22;;;;;;;2.58;0.88;;;;;;;7.74;99.34;97101.88;5032725;28;20041;-60
2023/01/11 09:46:54;;;;;;;1.88;0.98;;;;;;;7.79;98.74;97096.63;5044583;28;20115;-60
2023/01/11 09:49:26;;;;;;;4.10;2.47;;;;;;;7.81;99.10;97096.34;5044431;28;20132;-60
2023/01/11 09:52:22;;;;;;;3.60;1.50;;;;;;;7.86;98.84;97091.09;5043017;28;20045;-61
2023/01/11 09:54:50;;;;;;;2.58;0.80;;;;;;;7.90;98.81;97088.72;5043101;28;20542;-60
2023/01/11 09:57:38;;;;;;;6.68;3.40;;;;;;;7.90;98.83;97089.53;5045024;28;20755;-60
2023/01/11 10:00:05;;;;;;;6.32;3.33;;;;;;;7.87;99.00;97100.81;5043295;28;20139;-59
2023/01/11 10:02:52;;;;;;;9.20;4.47;;;;;;;7.88;99.02;97096.22;5043707;28;20041;-61
2023/01/11 10:05:33;;;;;;;3.92;1.30;;;;;;;7.97;98.24;97093.94;5031252;28;20148;-60
2023/01/11 10:08:24;;;;;;;7.03;3.00;;;;;;;7.88;99.09;97101.59;5044316;28;20056;-61
2023/01/11 10:11:10;;;;;;;2.15;0.98;;;;;;;7.89;99.06;97100.56;5038770;28;20025;-61
2023/01/11 10:14:17;;;;;;;2.63;1.17;;;;;;;7.97;98.58;97099.34;5033712;28;20127;-59
2023/01/11 10:17:27;;;;;;;4.43;1.30;;;;;;;7.97;98.77;97093.94;5042789;28;20098;-60
2023/01/11 10:20:14;;;;;;;4.65;1.15;;;;;;;7.99;98.93;97091.84;5051425;28;20052;-60
2023/01/11 10:22:45;;;;;;;4.72;1.98;;;;;;;8.01;99.29;97093.25;5042022;28;20037;-61
2023/01/11 10:25:25;;;;;;;8.23;4.03;;;;;;;8.03;99.55;97092.97;5043613;28;20640;-61
2023/01/11 10:28:00;;;;;;;6.80;2.42;;;;;;;8.07;99.83;97091.44;5043580;28;20048;-61
2023/01/11 10:30:50;;;;;;;1.42;0.70;;;;;;;8.17;99.22;97090.78;5041487;28;20060;-60
2023/01/11 10:36:34;;;;;;;3.85;1.10;;;;;;;8.17;100.00;97096.19;5044128;28;20048;-60
2023/01/11 10:39:42;;;;;;;1.90;0.80;;;;;;;8.20;100.00;97088.44;5043810;28;20520;-61
2023/01/11 10:42:14;;;;;;;4.43;1.63;;;;;;;8.16;100.00;97092.69;5042190;28;20127;-61
2023/01/11 10:44:51;;;;;;;3.25;1.45;;;;;;;8.15;100.00;97093.72;5043134;28;20048;-60
2023/01/11 10:47:26;;;;;;;4.50;1.10;;;;;;;8.16;100.00;97095.38;5044617;28;20049;-60
2023/01/11 10:50:01;;;;;;;2.88;0.90;;;;;;;8.17;100.00;97099.72;5043166;28;20057;-61
2023/01/11 10:52:40;;;;;;;3.90;1.83;;;;;;;8.18;100.00;97089.72;5031628;28;20037;-61
2023/01/11 10:55:32;;;;;;;4.35;1.70;;;;;;;8.19;100.00;97096.78;5043410;28;20478;-60
2023/01/11 10:58:43;;;;;;;4.03;1.90;;;;;;;8.23;100.00;97094.41;5041615;28;20111;-61
2023/01/11 11:01:16;;;;;;;4.78;1.70;;;;;;;8.26;100.00;97089.31;5033549;28;20469;-62
2023/01/11 11:04:08;;;;;;;5.90;2.20;;;;;;;8.31;100.00;97086.75;5036528;28;20790;-60
2023/01/11 11:06:42;;;;;;;;;;;;;;;8.35;100.00;97087.06;5032798;28;20049;-60
2023/01/11 11:09:44;;;;;;;21.73;5.95;;;;;;;8.48;100.00;97082.41;5035497;28;19932;-61
2023/01/11 11:12:22;;;;;;;4.45;1.40;;;;;;;8.55;100.00;97086.59;5044482;28;20044;-60
2023/01/11 11:14:56;;;;;;;5.10;1.63;;;;;;;8.59;100.00;97078.84;5040910;28;20120;-60
2023/01/11 11:17:35;;;;;;;5.05;1.80;;;;;;;8.62;100.00;97080.22;5044082;28;20535;-61
2023/01/11 11:20:12;;;;;;;9.60;4.85;;;;;;;8.62;100.00;97078.34;5042974;28;20055;-61
2023/01/11 11:22:39;;;;;;;10.93;4.53;;;;;;;8.63;100.00;97074.59;5054789;28;20117;-61
2023/01/11 11:25:19;;;;;;;4.80;1.38;;;;;;;8.78;100.00;97078.56;5040559;28;20148;-60
2023/01/11 11:27:50;;;;;;;5.43;1.73;;;;;;;8.84;100.00;97077.56;5043228;28;20198;-61
2023/01/11 11:30:37;;;;;;;9.52;2.55;;;;;;;8.85;100.00;97071.13;5041992;28;20470;-61
2023/01/11 11:33:19;;;;;;;7.80;2.83;;;;;;;8.88;100.00;97069.81;5038668;28;20069;-60
2023/01/11 11:35:58;;;;;;;1.08;0.50;;;;;;;8.95;100.00;97073.13;5038068;28;20053;-61
2023/01/11 11:38:28;;;;;;;3.88;1.00;;;;;;;8.87;100.00;97060.06;5044800;28;20040;-61
2023/01/11 11:41:02;;;;;;;4.63;1.13;;;;;;;8.84;100.00;97066.78;5047439;28;20742;-60
2023/01/11 11:43:31;;;;;;;1.75;0.70;;;;;;;8.90;100.00;97070.38;5044934;28;20132;-60
2023/01/11 11:45:59;;;;;;;17.20;7.10;;;;;;;8.93;100.00;97069.88;5044732;28;20068;-60
2023/01/11 11:48:32;;;;;;;8.82;3.75;;;;;;;8.93;100.00;97065.31;5065922;28;20128;-61
2023/01/11 11:51:05;;;;;;;2.63;1.00;;;;;;;8.90;100.00;97065.78;5053326;28;20055;-61
2023/01/11 11:53:38;;;;;;;2.63;0.98;;;;;;;8.87;100.00;97063.56;5045017;28;20063;-61
2023/01/11 11:56:16;;;;;;;2.38;0.82;;;;;;;8.88;100.00;97062.50;5045299;28;20075;-61
2023/01/11 11:58:44;;;;;;;2.03;1.00;;;;;;;8.83;100.00;97062.44;5044473;28;20044;-61
2023/01/11 12:01:31;;;;;;;0.98;0.55;;;;;;;8.81;100.00;97064.59;5042303;28;20134;-61
2023/01/11 12:04:03;;;;;;;2.55;1.27;;;;;;;8.75;100.00;97062.88;5052484;28;20037;-60
2023/01/11 12:06:30;;;;;;;2.53;1.27;;;;;;;8.68;100.00;97054.94;5043371;28;20044;-60
2023/01/11 12:09:00;;;;;;;0.82;0.50;;;;;;;8.69;100.00;97057.41;5045231;28;20600;-61
2023/01/11 12:11:33;;;;;;;3.00;1.40;;;;;;;8.74;100.00;97058.53;5043466;28;20041;-61
2023/01/11 12:14:22;;;;;;;2.20;0.98;;;;;;;8.76;100.00;97059.09;5064704;28;20105;-60
2023/01/11 12:16:49;;;;;;;1.85;0.80;;;;;;;8.77;100.00;97063.44;5027307;28;20048;-61
2023/01/11 12:19:40;;;;;;;6.78;2.58;;;;;;;8.71;100.00;97060.66;5043788;28;20049;-61
2023/01/11 12:22:24;;;;;;;2.25;1.00;;;;;;;8.75;100.00;97071.78;5023493;28;20045;-61
2023/01/11 12:25:23;;;;;;;3.75;0.93;;;;;;;8.84;100.00;97062.19;5042159;28;20052;-60